sensor_id;sensor_type;location;lat;lon;timestamp;pressure;altitude;pressure_sealevel;temperature
69590;BMP180;56792;50.644;17.984;2023-02-28T00:00:53;100956.00;;;-0.50
69590;BMP180;56792;50.644;17.984;2023-02-28T00:03:25;100956.40;;;-0.50
69590;BMP180;56792;50.644;17.984;2023-02-28T00:05:57;100953.00;;;-0.50
69590;BMP180;56792;50.644;17.984;2023-02-28T00:08:29;100951.20;;;-0.50
69590;BMP180;56792;50.644;17.984;2023-02-28T00:11:06;100955.40;;;-0.50
69590;BMP180;56792;50.644;17.984;2023-02-28T00:13:42;100949.40;;;-0.50
69590;BMP180;56792;50.644;17.984;2023-02-28T00:16:20;100955.60;;;-0.50
69590;BMP180;56792;50.644;17.984;2023-02-28T00:18:53;100959.00;;;-0.46
69590;BMP180;56792;50.644;17.984;2023-02-28T00:21:25;100957.20;;;-0.44
69590;BMP180;56792;50.644;17.984;2023-02-28T00:23:58;100956.40;;;-0.50
69590;BMP180;56792;50.644;17.984;2023-02-28T00:26:30;100958.60;;;-0.50
69590;BMP180;56792;50.644;17.984;2023-02-28T00:29:02;100958.20;;;-0.50
69590;BMP180;56792;50.644;17.984;2023-02-28T00:31:34;100955.60;;;-0.50
69590;BMP180;56792;50.644;17.984;2023-02-28T00:34:08;100959.20;;;-0.50
69590;BMP180;56792;50.644;17.984;2023-02-28T00:36:40;100957.80;;;-0.50
69590;BMP180;56792;50.644;17.984;2023-02-28T00:39:16;100955.00;;;-0.50
69590;BMP180;56792;50.644;17.984;2023-02-28T00:41:48;100955.00;;;-0.50
69590;BMP180;56792;50.644;17.984;2023-02-28T00:44:20;100954.80;;;-0.50
69590;BMP180;56792;50.644;17.984;2023-02-28T00:46:53;100957.80;;;-0.50
69590;BMP180;56792;50.644;17.984;2023-02-28T00:49:29;100950.20;;;-0.50
69590;BMP180;56792;50.644;17.984;2023-02-28T00:52:01;100952.40;;;-0.50
69590;BMP180;56792;50.644;17.984;2023-02-28T00:54:34;100955.00;;;-0.54
69590;BMP180;56792;50.644;17.984;2023-02-28T00:57:06;100955.20;;;-0.60
69590;BMP180;56792;50.644;17.984;2023-02-28T00:59:38;100952.80;;;-0.60
69590;BMP180;56792;50.644;17.984;2023-02-28T01:02:10;100953.20;;;-0.60
69590;BMP180;56792;50.644;17.984;2023-02-28T01:04:43;100952.80;;;-0.60
69590;BMP180;56792;50.644;17.984;2023-02-28T01:07:15;100950.80;;;-0.60
69590;BMP180;56792;50.644;17.984;2023-02-28T01:09:47;100952.20;;;-0.60
69590;BMP180;56792;50.644;17.984;2023-02-28T01:12:19;100949.00;;;-0.66
69590;BMP180;56792;50.644;17.984;2023-02-28T01:14:51;100944.80;;;-0.70
69590;BMP180;56792;50.644;17.984;2023-02-28T01:17:26;100944.40;;;-0.70
69590;BMP180;56792;50.644;17.984;2023-02-28T01:19:59;100948.20;;;-0.70
69590;BMP180;56792;50.644;17.984;2023-02-28T01:22:31;100948.20;;;-0.70
69590;BMP180;56792;50.644;17.984;2023-02-28T01:25:03;100944.60;;;-0.70
69590;BMP180;56792;50.644;17.984;2023-02-28T01:27:36;100941.60;;;-0.80
69590;BMP180;56792;50.644;17.984;2023-02-28T01:30:12;100945.40;;;-0.80
69590;BMP180;56792;50.644;17.984;2023-02-28T01:32:45;100944.80;;;-0.82
69590;BMP180;56792;50.644;17.984;2023-02-28T01:35:17;100947.40;;;-0.90
69590;BMP180;56792;50.644;17.984;2023-02-28T01:37:49;100946.60;;;-0.90
69590;BMP180;56792;50.644;17.984;2023-02-28T01:40:23;100939.60;;;-1.00
69590;BMP180;56792;50.644;17.984;2023-02-28T01:42:55;100946.80;;;-1.02
69590;BMP180;56792;50.644;17.984;2023-02-28T01:45:31;100944.60;;;-1.10
69590;BMP180;56792;50.644;17.984;2023-02-28T01:48:10;100945.60;;;-1.20
69590;BMP180;56792;50.644;17.984;2023-02-28T01:50:46;100939.20;;;-1.28
69590;BMP180;56792;50.644;17.984;2023-02-28T01:53:23;100931.00;;;-1.30
69590;BMP180;56792;50.644;17.984;2023-02-28T01:55:58;100936.40;;;-1.40
69590;BMP180;56792;50.644;17.984;2023-02-28T01:58:31;100936.60;;;-1.50
69590;BMP180;56792;50.644;17.984;2023-02-28T02:01:03;100936.20;;;-1.50
69590;BMP180;56792;50.644;17.984;2023-02-28T02:03:38;100934.20;;;-1.60
69590;BMP180;56792;50.644;17.984;2023-02-28T02:06:10;100936.60;;;-1.66
69590;BMP180;56792;50.644;17.984;2023-02-28T02:08:43;100940.80;;;-1.70
69590;BMP180;56792;50.644;17.984;2023-02-28T02:11:19;100934.00;;;-1.80
69590;BMP180;56792;50.644;17.984;2023-02-28T02:14:18;100933.00;;;-1.90
69590;BMP180;56792;50.644;17.984;2023-02-28T02:17:14;100931.40;;;-1.98
69590;BMP180;56792;50.644;17.984;2023-02-28T02:26:50;100934.60;;;-2.20
69590;BMP180;56792;50.644;17.984;2023-02-28T02:33:27;100932.00;;;-2.38
69590;BMP180;56792;50.644;17.984;2023-02-28T02:36:06;100936.80;;;-2.50
69590;BMP180;56792;50.644;17.984;2023-02-28T02:38:50;100935.60;;;-2.56
69590;BMP180;56792;50.644;17.984;2023-02-28T02:41:32;100931.40;;;-2.60
69590;BMP180;56792;50.644;17.984;2023-02-28T02:44:20;100934.40;;;-2.66
69590;BMP180;56792;50.644;17.984;2023-02-28T02:46:58;100941.40;;;-2.70
69590;BMP180;56792;50.644;17.984;2023-02-28T02:49:38;100935.20;;;-2.72
69590;BMP180;56792;50.644;17.984;2023-02-28T02:52:16;100935.40;;;-2.80
69590;BMP180;56792;50.644;17.984;2023-02-28T02:54:54;100936.60;;;-2.90
69590;BMP180;56792;50.644;17.984;2023-02-28T02:57:33;100936.60;;;-2.90
69590;BMP180;56792;50.644;17.984;2023-02-28T03:00:11;100936.60;;;-3.00
69590;BMP180;56792;50.644;17.984;2023-02-28T03:02:47;100939.00;;;-3.00
69590;BMP180;56792;50.644;17.984;2023-02-28T03:05:27;100939.00;;;-3.10
69590;BMP180;56792;50.644;17.984;2023-02-28T03:08:01;100937.80;;;-3.10
69590;BMP180;56792;50.644;17.984;2023-02-28T03:10:40;100939.00;;;-3.20
69590;BMP180;56792;50.644;17.984;2023-02-28T03:14:07;100941.00;;;-3.20
69590;BMP180;56792;50.644;17.984;2023-02-28T03:17:13;100942.40;;;-3.36
69590;BMP180;56792;50.644;17.984;2023-02-28T03:20:01;100940.00;;;-3.40
69590;BMP180;56792;50.644;17.984;2023-02-28T03:22:54;100944.60;;;-3.42
69590;BMP180;56792;50.644;17.984;2023-02-28T03:25:37;100946.80;;;-3.50
69590;BMP180;56792;50.644;17.984;2023-02-28T03:28:17;100947.40;;;-3.50
69590;BMP180;56792;50.644;17.984;2023-02-28T03:30:55;100940.20;;;-3.50
69590;BMP180;56792;50.644;17.984;2023-02-28T03:33:34;100935.20;;;-3.50
69590;BMP180;56792;50.644;17.984;2023-02-28T03:36:12;100946.60;;;-3.60
69590;BMP180;56792;50.644;17.984;2023-02-28T03:38:51;100946.00;;;-3.60
69590;BMP180;56792;50.644;17.984;2023-02-28T03:41:27;100947.00;;;-3.60
69590;BMP180;56792;50.644;17.984;2023-02-28T03:44:08;100949.60;;;-3.68
69590;BMP180;56792;50.644;17.984;2023-02-28T03:46:48;100951.80;;;-3.70
69590;BMP180;56792;50.644;17.984;2023-02-28T03:49:26;100948.00;;;-3.70
69590;BMP180;56792;50.644;17.984;2023-02-28T03:52:04;100950.40;;;-3.80
69590;BMP180;56792;50.644;17.984;2023-02-28T03:54:43;100952.80;;;-3.80
69590;BMP180;56792;50.644;17.984;2023-02-28T03:57:25;100953.00;;;-3.80
69590;BMP180;56792;50.644;17.984;2023-02-28T04:00:03;100958.80;;;-3.90
69590;BMP180;56792;50.644;17.984;2023-02-28T04:02:43;100958.60;;;-3.90
69590;BMP180;56792;50.644;17.984;2023-02-28T04:05:15;100961.20;;;-3.90
69590;BMP180;56792;50.644;17.984;2023-02-28T04:07:48;100960.00;;;-3.90
69590;BMP180;56792;50.644;17.984;2023-02-28T04:10:20;100957.60;;;-4.00
69590;BMP180;56792;50.644;17.984;2023-02-28T04:12:53;100956.80;;;-4.00
69590;BMP180;56792;50.644;17.984;2023-02-28T04:15:26;100958.20;;;-4.00
69590;BMP180;56792;50.644;17.984;2023-02-28T04:17:58;100965.60;;;-4.00
69590;BMP180;56792;50.644;17.984;2023-02-28T04:20:30;100964.20;;;-4.00
69590;BMP180;56792;50.644;17.984;2023-02-28T04:23:02;100971.20;;;-4.04
69590;BMP180;56792;50.644;17.984;2023-02-28T04:25:35;100962.60;;;-4.08
69590;BMP180;56792;50.644;17.984;2023-02-28T04:28:07;100971.00;;;-4.10
69590;BMP180;56792;50.644;17.984;2023-02-28T04:30:40;100970.40;;;-4.10
69590;BMP180;56792;50.644;17.984;2023-02-28T04:33:13;100963.60;;;-4.18
69590;BMP180;56792;50.644;17.984;2023-02-28T04:35:45;100972.80;;;-4.20
69590;BMP180;56792;50.644;17.984;2023-02-28T04:38:17;100974.60;;;-4.20
69590;BMP180;56792;50.644;17.984;2023-02-28T04:40:50;100970.60;;;-4.30
69590;BMP180;56792;50.644;17.984;2023-02-28T04:43:22;100972.40;;;-4.30
69590;BMP180;56792;50.644;17.984;2023-02-28T04:45:55;100973.40;;;-4.30
69590;BMP180;56792;50.644;17.984;2023-02-28T04:48:30;100975.40;;;-4.30
69590;BMP180;56792;50.644;17.984;2023-02-28T04:51:07;100975.80;;;-4.30
69590;BMP180;56792;50.644;17.984;2023-02-28T04:53:42;100975.20;;;-4.36
69590;BMP180;56792;50.644;17.984;2023-02-28T04:56:18;100976.20;;;-4.40
69590;BMP180;56792;50.644;17.984;2023-02-28T04:58:51;100976.40;;;-4.40
69590;BMP180;56792;50.644;17.984;2023-02-28T05:01:28;100975.60;;;-4.40
69590;BMP180;56792;50.644;17.984;2023-02-28T05:04:03;100978.00;;;-4.40
69590;BMP180;56792;50.644;17.984;2023-02-28T05:06:36;100985.00;;;-4.42
69590;BMP180;56792;50.644;17.984;2023-02-28T05:09:09;100988.60;;;-4.42
69590;BMP180;56792;50.644;17.984;2023-02-28T05:11:43;100989.00;;;-4.50
69590;BMP180;56792;50.644;17.984;2023-02-28T05:14:16;100991.20;;;-4.50
69590;BMP180;56792;50.644;17.984;2023-02-28T05:16:49;100985.80;;;-4.50
69590;BMP180;56792;50.644;17.984;2023-02-28T05:19:21;100996.80;;;-4.58
69590;BMP180;56792;50.644;17.984;2023-02-28T05:21:56;100993.20;;;-4.60
69590;BMP180;56792;50.644;17.984;2023-02-28T05:24:29;100996.40;;;-4.60
69590;BMP180;56792;50.644;17.984;2023-02-28T05:27:01;100991.00;;;-4.60
69590;BMP180;56792;50.644;17.984;2023-02-28T05:29:34;100998.40;;;-4.70
69590;BMP180;56792;50.644;17.984;2023-02-28T05:32:15;100997.40;;;-4.70
69590;BMP180;56792;50.644;17.984;2023-02-28T05:34:47;100996.00;;;-4.70
69590;BMP180;56792;50.644;17.984;2023-02-28T05:37:19;100999.20;;;-4.70
69590;BMP180;56792;50.644;17.984;2023-02-28T05:39:52;100996.60;;;-4.80
69590;BMP180;56792;50.644;17.984;2023-02-28T05:42:24;101006.20;;;-4.78
69590;BMP180;56792;50.644;17.984;2023-02-28T05:44:56;101003.00;;;-4.80
69590;BMP180;56792;50.644;17.984;2023-02-28T05:47:34;101005.80;;;-4.80
69590;BMP180;56792;50.644;17.984;2023-02-28T05:50:11;101006.00;;;-4.80
69590;BMP180;56792;50.644;17.984;2023-02-28T05:52:43;101008.00;;;-4.80
69590;BMP180;56792;50.644;17.984;2023-02-28T05:55:16;101009.00;;;-4.80
69590;BMP180;56792;50.644;17.984;2023-02-28T05:57:49;101014.40;;;-4.80
69590;BMP180;56792;50.644;17.984;2023-02-28T06:00:22;101009.80;;;-4.80
69590;BMP180;56792;50.644;17.984;2023-02-28T06:02:54;101018.00;;;-4.80
69590;BMP180;56792;50.644;17.984;2023-02-28T06:05:30;101019.80;;;-4.80
69590;BMP180;56792;50.644;17.984;2023-02-28T06:08:04;101020.20;;;-4.80
69590;BMP180;56792;50.644;17.984;2023-02-28T06:10:38;101021.40;;;-4.80
69590;BMP180;56792;50.644;17.984;2023-02-28T06:13:10;101025.00;;;-4.70
69590;BMP180;56792;50.644;17.984;2023-02-28T06:15:43;101025.00;;;-4.70
69590;BMP180;56792;50.644;17.984;2023-02-28T06:18:15;101035.40;;;-4.60
69590;BMP180;56792;50.644;17.984;2023-02-28T06:20:53;101040.00;;;-4.60
69590;BMP180;56792;50.644;17.984;2023-02-28T06:23:26;101040.80;;;-4.60
69590;BMP180;56792;50.644;17.984;2023-02-28T06:25:58;101045.40;;;-4.50
69590;BMP180;56792;50.644;17.984;2023-02-28T06:28:31;101047.00;;;-4.42
69590;BMP180;56792;50.644;17.984;2023-02-28T06:31:07;101048.40;;;-4.38
69590;BMP180;56792;50.644;17.984;2023-02-28T06:33:41;101054.00;;;-4.30
69590;BMP180;56792;50.644;17.984;2023-02-28T06:36:16;101056.60;;;-4.20
69590;BMP180;56792;50.644;17.984;2023-02-28T06:38:48;101055.60;;;-4.10
69590;BMP180;56792;50.644;17.984;2023-02-28T06:41:26;101060.00;;;-4.08
69590;BMP180;56792;50.644;17.984;2023-02-28T06:43:59;101060.20;;;-3.98
69590;BMP180;56792;50.644;17.984;2023-02-28T06:46:31;101066.00;;;-3.80
69590;BMP180;56792;50.644;17.984;2023-02-28T06:49:04;101063.60;;;-3.54
69590;BMP180;56792;50.644;17.984;2023-02-28T06:51:42;101064.00;;;-3.20
69590;BMP180;56792;50.644;17.984;2023-02-28T06:54:15;101063.60;;;-2.90
69590;BMP180;56792;50.644;17.984;2023-02-28T06:56:48;101066.20;;;-2.54
69590;BMP180;56792;50.644;17.984;2023-02-28T06:59:22;101069.00;;;-2.20
69590;BMP180;56792;50.644;17.984;2023-02-28T07:01:54;101066.00;;;-1.82
69590;BMP180;56792;50.644;17.984;2023-02-28T07:04:29;101067.20;;;-1.50
69590;BMP180;56792;50.644;17.984;2023-02-28T07:07:02;101069.20;;;-1.10
69590;BMP180;56792;50.644;17.984;2023-02-28T07:09:34;101063.40;;;-0.78
69590;BMP180;56792;50.644;17.984;2023-02-28T07:12:08;101070.40;;;-0.42
69590;BMP180;56792;50.644;17.984;2023-02-28T07:14:42;101070.00;;;-0.10
69590;BMP180;56792;50.644;17.984;2023-02-28T07:17:14;101074.80;;;0.30
69590;BMP180;56792;50.644;17.984;2023-02-28T07:19:47;101073.60;;;0.60
69590;BMP180;56792;50.644;17.984;2023-02-28T07:22:20;101074.80;;;0.90
69590;BMP180;56792;50.644;17.984;2023-02-28T07:24:52;101074.60;;;1.20
69590;BMP180;56792;50.644;17.984;2023-02-28T07:27:25;101074.60;;;1.52
69590;BMP180;56792;50.644;17.984;2023-02-28T07:29:57;101080.20;;;1.88
69590;BMP180;56792;50.644;17.984;2023-02-28T07:32:33;101082.80;;;2.18
69590;BMP180;56792;50.644;17.984;2023-02-28T07:35:10;101082.80;;;2.40
69590;BMP180;56792;50.644;17.984;2023-02-28T07:37:43;101078.80;;;2.74
69590;BMP180;56792;50.644;17.984;2023-02-28T07:40:18;101082.00;;;2.94
69590;BMP180;56792;50.644;17.984;2023-02-28T07:42:50;101081.60;;;3.30
69590;BMP180;56792;50.644;17.984;2023-02-28T07:45:23;101084.20;;;3.50
69590;BMP180;56792;50.644;17.984;2023-02-28T07:47:55;101085.40;;;3.80
69590;BMP180;56792;50.644;17.984;2023-02-28T07:50:27;101086.00;;;4.06
69590;BMP180;56792;50.644;17.984;2023-02-28T07:53:01;101078.40;;;4.30
69590;BMP180;56792;50.644;17.984;2023-02-28T07:55:33;101076.40;;;4.50
69590;BMP180;56792;50.644;17.984;2023-02-28T07:58:06;101074.40;;;4.78
69590;BMP180;56792;50.644;17.984;2023-02-28T08:00:39;101076.00;;;5.00
69590;BMP180;56792;50.644;17.984;2023-02-28T08:03:14;101070.20;;;5.20
69590;BMP180;56792;50.644;17.984;2023-02-28T08:05:47;101076.20;;;5.36
69590;BMP180;56792;50.644;17.984;2023-02-28T08:08:20;101078.00;;;5.50
69590;BMP180;56792;50.644;17.984;2023-02-28T08:10:52;101077.20;;;5.74
69590;BMP180;56792;50.644;17.984;2023-02-28T08:13:24;101075.40;;;5.98
69590;BMP180;56792;50.644;17.984;2023-02-28T08:15:58;101075.00;;;6.18
69590;BMP180;56792;50.644;17.984;2023-02-28T08:18:30;101075.60;;;6.36
69590;BMP180;56792;50.644;17.984;2023-02-28T08:21:07;101078.00;;;6.48
69590;BMP180;56792;50.644;17.984;2023-02-28T08:23:39;101077.80;;;6.60
69590;BMP180;56792;50.644;17.984;2023-02-28T08:26:12;101070.40;;;6.60
69590;BMP180;56792;50.644;17.984;2023-02-28T08:28:45;101075.00;;;6.70
69590;BMP180;56792;50.644;17.984;2023-02-28T08:31:20;101073.40;;;6.70
69590;BMP180;56792;50.644;17.984;2023-02-28T08:33:53;101076.00;;;6.80
69590;BMP180;56792;50.644;17.984;2023-02-28T08:36:29;101076.80;;;6.80
69590;BMP180;56792;50.644;17.984;2023-02-28T08:39:02;101081.60;;;6.90
69590;BMP180;56792;50.644;17.984;2023-02-28T08:41:35;101078.40;;;7.10
69590;BMP180;56792;50.644;17.984;2023-02-28T08:44:07;101078.80;;;7.20
69590;BMP180;56792;50.644;17.984;2023-02-28T08:46:40;101078.40;;;7.30
69590;BMP180;56792;50.644;17.984;2023-02-28T08:49:13;101077.60;;;7.40
69590;BMP180;56792;50.644;17.984;2023-02-28T08:51:46;101079.20;;;7.54
69590;BMP180;56792;50.644;17.984;2023-02-28T08:54:18;101081.60;;;7.60
69590;BMP180;56792;50.644;17.984;2023-02-28T08:56:50;101082.20;;;7.60
69590;BMP180;56792;50.644;17.984;2023-02-28T08:59:23;101084.40;;;7.80
69590;BMP180;56792;50.644;17.984;2023-02-28T09:01:55;101078.40;;;7.90
69590;BMP180;56792;50.644;17.984;2023-02-28T09:04:27;101077.00;;;8.12
69590;BMP180;56792;50.644;17.984;2023-02-28T09:07:01;101074.20;;;8.44
69590;BMP180;56792;50.644;17.984;2023-02-28T09:09:34;101079.00;;;8.96
69590;BMP180;56792;50.644;17.984;2023-02-28T09:12:07;101080.60;;;9.48
69590;BMP180;56792;50.644;17.984;2023-02-28T09:14:39;101080.00;;;9.96
69590;BMP180;56792;50.644;17.984;2023-02-28T09:17:12;101082.60;;;10.84
69590;BMP180;56792;50.644;17.984;2023-02-28T09:19:44;101088.80;;;11.86
69590;BMP180;56792;50.644;17.984;2023-02-28T09:22:17;101086.40;;;12.94
69590;BMP180;56792;50.644;17.984;2023-02-28T09:24:51;101087.80;;;13.60
69590;BMP180;56792;50.644;17.984;2023-02-28T09:27:23;101090.60;;;14.12
69590;BMP180;56792;50.644;17.984;2023-02-28T09:29:55;101087.60;;;14.96
69590;BMP180;56792;50.644;17.984;2023-02-28T09:32:28;101094.80;;;15.60
69590;BMP180;56792;50.644;17.984;2023-02-28T09:35:00;101096.20;;;16.00
69590;BMP180;56792;50.644;17.984;2023-02-28T09:37:32;101091.00;;;16.60
69590;BMP180;56792;50.644;17.984;2023-02-28T09:40:07;101091.20;;;17.00
69590;BMP180;56792;50.644;17.984;2023-02-28T09:42:40;101093.80;;;17.50
69590;BMP180;56792;50.644;17.984;2023-02-28T09:45:26;101095.60;;;18.22
69590;BMP180;56792;50.644;17.984;2023-02-28T09:48:06;101089.60;;;18.90
69590;BMP180;56792;50.644;17.984;2023-02-28T09:50:47;101097.00;;;19.16
69590;BMP180;56792;50.644;17.984;2023-02-28T09:53:27;101095.00;;;19.40
69590;BMP180;56792;50.644;17.984;2023-02-28T09:56:10;101099.60;;;20.16
69590;BMP180;56792;50.644;17.984;2023-02-28T09:58:49;101108.80;;;20.84
69590;BMP180;56792;50.644;17.984;2023-02-28T10:01:33;101114.60;;;20.80
69590;BMP180;56792;50.644;17.984;2023-02-28T10:04:21;101107.00;;;21.00
69590;BMP180;56792;50.644;17.984;2023-02-28T10:06:58;101101.20;;;20.92
69590;BMP180;56792;50.644;17.984;2023-02-28T10:09:35;101106.60;;;21.64
69590;BMP180;56792;50.644;17.984;2023-02-28T10:12:11;101111.40;;;22.00
69590;BMP180;56792;50.644;17.984;2023-02-28T10:14:49;101106.20;;;21.86
69590;BMP180;56792;50.644;17.984;2023-02-28T10:17:27;101106.40;;;22.34
69590;BMP180;56792;50.644;17.984;2023-02-28T10:20:09;101107.80;;;22.70
69590;BMP180;56792;50.644;17.984;2023-02-28T10:22:56;101108.20;;;23.14
69590;BMP180;56792;50.644;17.984;2023-02-28T10:25:30;101105.00;;;22.72
69590;BMP180;56792;50.644;17.984;2023-02-28T10:28:11;101105.40;;;22.60
69590;BMP180;56792;50.644;17.984;2023-02-28T10:30:48;101110.40;;;23.00
69590;BMP180;56792;50.644;17.984;2023-02-28T10:33:28;101108.60;;;23.32
69590;BMP180;56792;50.644;17.984;2023-02-28T10:36:02;101110.80;;;23.30
69590;BMP180;56792;50.644;17.984;2023-02-28T10:38:39;101107.20;;;23.74
69590;BMP180;56792;50.644;17.984;2023-02-28T10:41:14;101110.00;;;23.94
69590;BMP180;56792;50.644;17.984;2023-02-28T10:43:47;101108.80;;;23.48
69590;BMP180;56792;50.644;17.984;2023-02-28T10:46:23;101105.40;;;22.92
69590;BMP180;56792;50.644;17.984;2023-02-28T10:49:12;101103.80;;;22.06
69590;BMP180;56792;50.644;17.984;2023-02-28T10:51:52;101098.40;;;21.80
69590;BMP180;56792;50.644;17.984;2023-02-28T10:54:34;101099.80;;;22.50
69590;BMP180;56792;50.644;17.984;2023-02-28T10:57:20;101095.40;;;22.60
69590;BMP180;56792;50.644;17.984;2023-02-28T11:00:15;101095.60;;;23.00
69590;BMP180;56792;50.644;17.984;2023-02-28T11:02:48;101099.80;;;23.58
69590;BMP180;56792;50.644;17.984;2023-02-28T11:05:32;101098.80;;;23.78
69590;BMP180;56792;50.644;17.984;2023-02-28T11:08:16;101095.20;;;24.24
69590;BMP180;56792;50.644;17.984;2023-02-28T11:10:55;101097.40;;;24.66
69590;BMP180;56792;50.644;17.984;2023-02-28T11:13:33;101095.80;;;24.40
69590;BMP180;56792;50.644;17.984;2023-02-28T11:16:11;101097.00;;;24.70
69590;BMP180;56792;50.644;17.984;2023-02-28T11:18:49;101095.80;;;24.60
69590;BMP180;56792;50.644;17.984;2023-02-28T11:21:31;101088.60;;;24.42
69590;BMP180;56792;50.644;17.984;2023-02-28T11:24:15;101091.20;;;24.20
69590;BMP180;56792;50.644;17.984;2023-02-28T11:26:52;101087.20;;;23.86
69590;BMP180;56792;50.644;17.984;2023-02-28T11:29:26;101091.40;;;23.54
69590;BMP180;56792;50.644;17.984;2023-02-28T11:32:21;101088.00;;;23.80
69590;BMP180;56792;50.644;17.984;2023-02-28T11:35:17;101081.20;;;24.54
69590;BMP180;56792;50.644;17.984;2023-02-28T11:37:53;101076.20;;;24.58
69590;BMP180;56792;50.644;17.984;2023-02-28T11:40:46;101075.20;;;23.96
69590;BMP180;56792;50.644;17.984;2023-02-28T11:43:33;101078.60;;;23.86
69590;BMP180;56792;50.644;17.984;2023-02-28T11:46:24;101074.40;;;24.40
69590;BMP180;56792;50.644;17.984;2023-02-28T11:49:17;101074.40;;;24.20
69590;BMP180;56792;50.644;17.984;2023-02-28T11:52:00;101067.80;;;23.98
69590;BMP180;56792;50.644;17.984;2023-02-28T11:55:11;101069.80;;;23.86
69590;BMP180;56792;50.644;17.984;2023-02-28T11:58:11;101065.40;;;24.74
69590;BMP180;56792;50.644;17.984;2023-02-28T12:01:14;101067.80;;;25.20
69590;BMP180;56792;50.644;17.984;2023-02-28T12:04:11;101069.80;;;25.48
69590;BMP180;56792;50.644;17.984;2023-02-28T12:06:52;101068.00;;;25.66
69590;BMP180;56792;50.644;17.984;2023-02-28T12:09:50;101061.40;;;25.68
69590;BMP180;56792;50.644;17.984;2023-02-28T12:12:40;101057.60;;;25.80
69590;BMP180;56792;50.644;17.984;2023-02-28T12:15:34;101055.20;;;25.80
69590;BMP180;56792;50.644;17.984;2023-02-28T12:18:29;101055.20;;;25.60
69590;BMP180;56792;50.644;17.984;2023-02-28T12:21:11;101047.00;;;25.14
69590;BMP180;56792;50.644;17.984;2023-02-28T12:24:10;101042.60;;;23.48
69590;BMP180;56792;50.644;17.984;2023-02-28T12:26:48;101038.00;;;22.30
69590;BMP180;56792;50.644;17.984;2023-02-28T12:29:25;101034.20;;;21.42
69590;BMP180;56792;50.644;17.984;2023-02-28T12:32:06;101033.00;;;20.26
69590;BMP180;56792;50.644;17.984;2023-02-28T12:34:47;101027.80;;;19.08
69590;BMP180;56792;50.644;17.984;2023-02-28T12:37:27;101028.40;;;17.88
69590;BMP180;56792;50.644;17.984;2023-02-28T12:40:09;101023.80;;;17.22
69590;BMP180;56792;50.644;17.984;2023-02-28T12:42:49;101024.00;;;17.10
69590;BMP180;56792;50.644;17.984;2023-02-28T12:45:25;101014.80;;;17.10
69590;BMP180;56792;50.644;17.984;2023-02-28T12:48:04;101015.40;;;17.76
69590;BMP180;56792;50.644;17.984;2023-02-28T12:50:38;101011.20;;;18.60
69590;BMP180;56792;50.644;17.984;2023-02-28T12:53:17;101013.80;;;19.30
69590;BMP180;56792;50.644;17.984;2023-02-28T12:56:01;101016.80;;;20.26
69590;BMP180;56792;50.644;17.984;2023-02-28T12:58:42;101012.80;;;20.70
69590;BMP180;56792;50.644;17.984;2023-02-28T13:01:45;101006.80;;;21.00
69590;BMP180;56792;50.644;17.984;2023-02-28T13:08:10;101003.60;;;20.86
69590;BMP180;56792;50.644;17.984;2023-02-28T13:10:47;101002.80;;;20.80
69590;BMP180;56792;50.644;17.984;2023-02-28T13:13:28;101005.80;;;20.70
69590;BMP180;56792;50.644;17.984;2023-02-28T13:16:10;101003.00;;;20.50
69590;BMP180;56792;50.644;17.984;2023-02-28T13:18:45;100999.40;;;20.50
69590;BMP180;56792;50.644;17.984;2023-02-28T13:21:29;100997.20;;;20.40
69590;BMP180;56792;50.644;17.984;2023-02-28T13:24:09;100992.80;;;20.90
69590;BMP180;56792;50.644;17.984;2023-02-28T13:27:31;100993.20;;;21.28
69590;BMP180;56792;50.644;17.984;2023-02-28T13:33:29;100993.60;;;23.00
69590;BMP180;56792;50.644;17.984;2023-02-28T13:36:27;100995.00;;;23.48
69590;BMP180;56792;50.644;17.984;2023-02-28T13:39:03;100997.40;;;24.14
69590;BMP180;56792;50.644;17.984;2023-02-28T13:41:56;100995.80;;;24.20
69590;BMP180;56792;50.644;17.984;2023-02-28T13:44:29;100993.00;;;24.38
69590;BMP180;56792;50.644;17.984;2023-02-28T13:47:31;100989.80;;;24.40
69590;BMP180;56792;50.644;17.984;2023-02-28T13:50:38;100993.20;;;24.90
69590;BMP180;56792;50.644;17.984;2023-02-28T13:53:57;100996.20;;;24.80
69590;BMP180;56792;50.644;17.984;2023-02-28T13:56:44;100990.80;;;24.40
69590;BMP180;56792;50.644;17.984;2023-02-28T13:59:31;100989.40;;;24.70
69590;BMP180;56792;50.644;17.984;2023-02-28T14:05:18;100991.20;;;25.08
69590;BMP180;56792;50.644;17.984;2023-02-28T14:07:55;100986.80;;;25.08
69590;BMP180;56792;50.644;17.984;2023-02-28T14:10:31;100988.20;;;25.20
69590;BMP180;56792;50.644;17.984;2023-02-28T14:13:17;100986.60;;;25.00
69590;BMP180;56792;50.644;17.984;2023-02-28T14:16:10;100987.40;;;25.20
69590;BMP180;56792;50.644;17.984;2023-02-28T14:18:50;100985.20;;;25.10
69590;BMP180;56792;50.644;17.984;2023-02-28T14:21:31;100983.40;;;24.70
69590;BMP180;56792;50.644;17.984;2023-02-28T14:24:28;100982.80;;;24.30
69590;BMP180;56792;50.644;17.984;2023-02-28T14:27:41;100982.20;;;24.20
69590;BMP180;56792;50.644;17.984;2023-02-28T14:30:59;100986.20;;;22.98
69590;BMP180;56792;50.644;17.984;2023-02-28T14:34:05;100984.80;;;21.14
69590;BMP180;56792;50.644;17.984;2023-02-28T14:36:48;100977.40;;;18.88
69590;BMP180;56792;50.644;17.984;2023-02-28T14:39:24;100975.00;;;17.62
69590;BMP180;56792;50.644;17.984;2023-02-28T14:41:59;100971.80;;;16.68
69590;BMP180;56792;50.644;17.984;2023-02-28T14:44:37;100970.80;;;15.76
69590;BMP180;56792;50.644;17.984;2023-02-28T14:47:18;100969.00;;;15.10
69590;BMP180;56792;50.644;17.984;2023-02-28T14:49:52;100966.20;;;14.36
69590;BMP180;56792;50.644;17.984;2023-02-28T14:52:28;100959.40;;;13.84
69590;BMP180;56792;50.644;17.984;2023-02-28T14:55:06;100958.40;;;13.38
69590;BMP180;56792;50.644;17.984;2023-02-28T14:57:52;100954.20;;;12.90
69590;BMP180;56792;50.644;17.984;2023-02-28T15:00:29;100949.60;;;12.48
69590;BMP180;56792;50.644;17.984;2023-02-28T15:03:22;100949.00;;;12.10
69590;BMP180;56792;50.644;17.984;2023-02-28T15:06:00;100951.40;;;11.80
69590;BMP180;56792;50.644;17.984;2023-02-28T15:08:34;100953.60;;;11.40